createdAt,value
2023-05-16T00:00:34.182Z,0.00
2023-05-16T00:01:34.262Z,0.00
2023-05-16T00:02:34.409Z,0.00
2023-05-16T00:03:34.441Z,0.00
2023-05-16T00:04:34.165Z,0.00
2023-05-16T00:05:34.047Z,0.00
2023-05-16T00:06:33.915Z,0.00
2023-05-16T00:07:34.055Z,0.00
2023-05-16T00:08:33.823Z,0.00
2023-05-16T00:09:35.095Z,0.00
2023-05-16T00:10:33.764Z,0.00
2023-05-16T00:11:33.693Z,0.00
2023-05-16T00:12:33.680Z,0.00
2023-05-16T00:13:33.694Z,0.00
2023-05-16T00:14:33.559Z,0.00
2023-05-16T00:15:33.706Z,0.00
2023-05-16T00:16:33.535Z,0.00
2023-05-16T00:17:33.495Z,0.00
2023-05-16T00:18:33.557Z,0.00
2023-05-16T00:19:33.342Z,0.00
2023-05-16T00:20:33.682Z,0.00
2023-05-16T00:21:33.664Z,0.00
2023-05-16T00:22:33.223Z,0.00
2023-05-16T00:23:33.174Z,0.00
2023-05-16T00:24:33.363Z,0.00
2023-05-16T00:25:33.140Z,0.00
2023-05-16T00:26:33.188Z,0.00
2023-05-16T00:27:33.068Z,0.00
2023-05-16T00:28:33.012Z,0.00
2023-05-16T00:29:33.000Z,0.00
2023-05-16T00:30:32.866Z,0.00
2023-05-16T00:31:33.229Z,0.00
2023-05-16T00:32:32.839Z,0.00
2023-05-16T00:33:32.733Z,0.00
2023-05-16T00:34:32.775Z,0.00
2023-05-16T00:35:32.880Z,0.00
2023-05-16T00:36:32.615Z,0.00
2023-05-16T00:37:32.843Z,0.00
2023-05-16T00:38:32.548Z,0.00
2023-05-16T00:39:32.470Z,0.00
2023-05-16T00:40:32.823Z,0.00
2023-05-16T00:41:32.377Z,0.00
2023-05-16T00:42:32.473Z,0.00
2023-05-16T00:43:32.333Z,0.00
2023-05-16T00:44:32.496Z,0.00
2023-05-16T00:45:32.229Z,0.00
2023-05-16T00:46:32.378Z,0.00
2023-05-16T00:47:32.128Z,0.00
2023-05-16T00:48:32.319Z,0.00
2023-05-16T00:49:32.182Z,0.00
2023-05-16T00:50:31.988Z,0.00
2023-05-16T00:51:31.941Z,0.00
2023-05-16T00:52:32.179Z,0.00
2023-05-16T00:53:31.854Z,0.00
2023-05-16T00:54:31.957Z,0.00
2023-05-16T00:55:31.796Z,0.00
2023-05-16T00:56:31.725Z,0.00
2023-05-16T00:57:31.774Z,0.00
2023-05-16T00:58:31.635Z,0.00
2023-05-16T00:59:33.010Z,0.00
2023-05-16T01:00:31.554Z,0.00
2023-05-16T01:01:31.547Z,0.00
2023-05-16T01:02:31.612Z,0.00
2023-05-16T01:03:32.794Z,0.00
2023-05-16T01:04:31.661Z,0.00
2023-05-16T01:05:31.425Z,0.00
2023-05-16T01:06:31.290Z,0.00
2023-05-16T01:07:31.250Z,0.00
2023-05-16T01:08:32.253Z,0.00
2023-05-16T01:09:31.166Z,0.00
2023-05-16T01:10:31.258Z,0.00
2023-05-16T01:11:31.079Z,0.00
2023-05-16T01:12:31.079Z,0.00
2023-05-16T01:13:31.022Z,0.00
2023-05-16T01:14:31.077Z,0.00
2023-05-16T01:15:30.904Z,0.00
2023-05-16T01:16:31.466Z,0.00
2023-05-16T01:17:30.853Z,0.00
2023-05-16T01:18:30.789Z,0.00
2023-05-16T01:19:30.968Z,0.00
2023-05-16T01:20:30.665Z,0.00
2023-05-16T01:21:30.710Z,0.00
2023-05-16T01:22:30.635Z,0.00
2023-05-16T01:23:30.721Z,0.00
2023-05-16T01:24:30.494Z,0.00
2023-05-16T01:25:30.738Z,0.00
2023-05-16T01:26:30.449Z,0.00
2023-05-16T01:27:30.558Z,0.00
2023-05-16T01:28:30.416Z,0.00
2023-05-16T01:29:30.276Z,0.00
2023-05-16T01:30:30.253Z,0.00
2023-05-16T01:31:30.387Z,0.00
2023-05-16T01:32:30.159Z,0.00
2023-05-16T01:33:30.192Z,0.00
2023-05-16T01:34:30.055Z,0.00
2023-05-16T01:35:30.195Z,0.00
2023-05-16T01:36:30.377Z,0.00
2023-05-16T01:37:30.006Z,0.00
2023-05-16T01:38:29.927Z,0.00
2023-05-16T01:39:30.030Z,0.00
2023-05-16T01:40:30.033Z,0.00
2023-05-16T01:41:29.767Z,0.00
2023-05-16T01:42:29.836Z,0.00
2023-05-16T01:43:29.902Z,0.00
2023-05-16T01:44:29.854Z,0.00
2023-05-16T01:45:29.840Z,0.00
2023-05-16T01:46:29.588Z,0.00
2023-05-16T01:47:29.710Z,0.00
2023-05-16T01:48:29.529Z,0.00
2023-05-16T01:49:29.682Z,0.00
2023-05-16T01:50:29.370Z,0.00
2023-05-16T01:51:29.317Z,0.00
2023-05-16T01:52:29.270Z,0.00
2023-05-16T01:53:29.309Z,0.00
2023-05-16T01:54:29.222Z,0.00
2023-05-16T01:55:29.523Z,0.00
2023-05-16T01:56:29.101Z,0.00
2023-05-16T01:57:29.053Z,0.00
2023-05-16T01:58:29.634Z,0.00
2023-05-16T01:59:29.086Z,0.00
2023-05-16T02:00:28.922Z,0.00
2023-05-16T02:01:29.001Z,0.00
2023-05-16T02:02:29.055Z,0.00
2023-05-16T02:03:29.012Z,0.00
2023-05-16T02:04:28.748Z,0.00
2023-05-16T02:05:29.083Z,0.00
2023-05-16T02:06:28.686Z,0.00
2023-05-16T02:07:29.819Z,0.00
2023-05-16T02:08:28.594Z,0.00
2023-05-16T02:09:28.815Z,0.00
2023-05-16T02:10:28.494Z,0.00
2023-05-16T02:11:28.625Z,0.00
2023-05-16T02:12:28.687Z,0.00
2023-05-16T02:13:28.644Z,0.00
2023-05-16T02:14:28.337Z,0.00
2023-05-16T02:15:28.750Z,0.00
2023-05-16T02:16:28.266Z,0.00
2023-05-16T02:17:28.485Z,0.00
2023-05-16T02:18:28.424Z,0.00
2023-05-16T02:19:28.117Z,0.00
2023-05-16T02:20:28.075Z,0.00
2023-05-16T02:21:28.297Z,0.00
2023-05-16T02:22:27.970Z,0.00
2023-05-16T02:23:28.097Z,0.00
2023-05-16T02:24:27.876Z,0.00
2023-05-16T02:25:28.005Z,0.00
2023-05-16T02:26:27.913Z,0.00
2023-05-16T02:27:27.770Z,0.00
2023-05-16T02:28:27.922Z,0.00
2023-05-16T02:29:27.782Z,0.00
2023-05-16T02:30:27.645Z,0.00
2023-05-16T02:31:27.791Z,0.00
2023-05-16T02:32:27.792Z,0.00
2023-05-16T02:33:27.489Z,0.00
2023-05-16T02:34:27.564Z,0.00
2023-05-16T02:35:27.771Z,0.00
2023-05-16T02:36:27.366Z,0.00
2023-05-16T02:37:27.439Z,0.00
2023-05-16T02:38:27.389Z,0.00
2023-05-16T02:39:27.250Z,0.00
2023-05-16T02:40:27.398Z,0.00
2023-05-16T02:41:27.408Z,0.00
2023-05-16T02:42:27.110Z,0.00
2023-05-16T02:43:27.219Z,0.00
2023-05-16T02:44:27.091Z,0.00
2023-05-16T02:45:27.677Z,0.00
2023-05-16T02:46:26.928Z,0.00
2023-05-16T02:47:26.917Z,0.00
2023-05-16T02:48:26.843Z,0.00
2023-05-16T02:49:27.061Z,0.00
2023-05-16T02:50:26.751Z,0.00
2023-05-16T02:51:26.859Z,0.00
2023-05-16T02:52:26.655Z,0.00
2023-05-16T02:53:27.083Z,0.00
2023-05-16T02:54:26.576Z,0.00
2023-05-16T02:55:26.692Z,0.00
2023-05-16T02:56:26.530Z,0.00
2023-05-16T02:57:26.713Z,0.00
2023-05-16T02:58:26.509Z,0.00
2023-05-16T02:59:26.360Z,0.00
2023-05-16T03:00:26.938Z,0.00
2023-05-16T03:01:26.303Z,0.00
2023-05-16T03:02:26.406Z,0.00
2023-05-16T03:03:26.288Z,0.00
2023-05-16T03:04:26.345Z,0.00
2023-05-16T03:05:27.147Z,0.00
2023-05-16T03:06:26.170Z,0.00
2023-05-16T03:07:26.004Z,0.00
2023-05-16T03:08:26.172Z,0.00
2023-05-16T03:09:26.183Z,0.00
2023-05-16T03:10:25.873Z,0.00
2023-05-16T03:11:26.026Z,0.00
2023-05-16T03:12:26.040Z,0.00
2023-05-16T03:13:26.017Z,0.00
2023-05-16T03:14:25.701Z,0.00
2023-05-16T03:15:25.734Z,0.00
2023-05-16T03:16:25.860Z,0.00
2023-05-16T03:17:25.629Z,0.00
2023-05-16T03:18:25.678Z,0.00
2023-05-16T03:19:25.751Z,0.00
2023-05-16T03:20:25.438Z,0.00
2023-05-16T03:21:25.408Z,0.00
2023-05-16T03:22:25.463Z,0.00
2023-05-16T03:23:25.306Z,0.00
2023-05-16T03:24:25.564Z,0.00
2023-05-16T03:25:25.527Z,0.00
2023-05-16T03:26:25.171Z,0.00
2023-05-16T03:27:25.302Z,0.00
2023-05-16T03:28:25.131Z,0.00
2023-05-16T03:29:25.381Z,0.00
2023-05-16T03:30:25.028Z,0.00
2023-05-16T03:31:25.104Z,0.00
2023-05-16T03:32:24.996Z,0.00
2023-05-16T03:33:25.144Z,0.00
2023-05-16T03:34:24.834Z,0.00
2023-05-16T03:35:26.340Z,0.00
2023-05-16T03:36:24.763Z,0.00
2023-05-16T03:37:25.015Z,0.00
2023-05-16T03:38:24.759Z,0.00
2023-05-16T03:39:24.607Z,0.00
2023-05-16T03:40:24.801Z,0.00
2023-05-16T03:41:24.527Z,0.00
2023-05-16T03:42:24.506Z,0.00
2023-05-16T03:43:24.438Z,0.00
2023-05-16T03:44:24.633Z,0.00
2023-05-16T03:45:24.460Z,0.00
2023-05-16T03:46:24.465Z,0.00
2023-05-16T03:47:24.548Z,5.63
2023-05-16T03:48:24.267Z,5.63
2023-05-16T03:49:24.461Z,5.63
2023-05-16T03:50:24.172Z,5.63
2023-05-16T03:51:24.234Z,5.63
2023-05-16T03:52:24.045Z,5.63
2023-05-16T03:53:24.262Z,5.63
2023-05-16T03:54:23.951Z,11.25
2023-05-16T03:55:24.097Z,11.25
2023-05-16T03:56:23.892Z,11.25
2023-05-16T03:57:24.286Z,11.25
2023-05-16T03:58:23.798Z,16.88
2023-05-16T03:59:23.740Z,16.88
2023-05-16T04:00:23.696Z,16.88
2023-05-16T04:01:23.926Z,22.50
2023-05-16T04:02:23.860Z,22.50
2023-05-16T04:03:23.752Z,22.50
2023-05-16T04:04:23.510Z,28.13
2023-05-16T04:05:23.523Z,28.13
2023-05-16T04:06:23.549Z,33.75
2023-05-16T04:07:24.017Z,33.75
2023-05-16T04:08:23.542Z,39.38
2023-05-16T04:09:23.303Z,39.38
2023-05-16T04:10:23.251Z,45.00
2023-05-16T04:11:23.212Z,45.00
2023-05-16T04:12:23.367Z,50.63
2023-05-16T04:13:23.190Z,50.63
2023-05-16T04:14:23.386Z,50.63
2023-05-16T04:15:23.069Z,56.25
2023-05-16T04:16:23.028Z,56.25
2023-05-16T04:17:23.235Z,61.88
2023-05-16T04:18:22.918Z,67.50
2023-05-16T04:19:23.134Z,67.50
2023-05-16T04:20:22.853Z,73.13
2023-05-16T04:21:22.770Z,78.75
2023-05-16T04:22:22.737Z,78.75
2023-05-16T04:23:22.893Z,84.38
2023-05-16T04:24:23.173Z,90.00
2023-05-16T04:25:23.100Z,95.63
2023-05-16T04:26:22.582Z,101.25
2023-05-16T04:27:22.553Z,106.88
2023-05-16T04:28:22.487Z,112.50
2023-05-16T04:29:23.726Z,112.50
2023-05-16T04:30:22.385Z,118.13
2023-05-16T04:31:22.389Z,118.13
2023-05-16T04:32:22.727Z,118.13
2023-05-16T04:33:22.258Z,118.13
2023-05-16T04:34:22.509Z,112.50
2023-05-16T04:35:22.202Z,112.50
2023-05-16T04:36:23.344Z,106.88
2023-05-16T04:37:22.079Z,106.88
2023-05-16T04:38:22.050Z,106.88
2023-05-16T04:39:21.998Z,106.88
2023-05-16T04:40:23.373Z,106.88
2023-05-16T04:41:21.908Z,101.25
2023-05-16T04:42:22.081Z,101.25
2023-05-16T04:43:21.817Z,101.25
2023-05-16T04:44:22.900Z,106.88
2023-05-16T04:45:21.765Z,118.13
2023-05-16T04:46:22.042Z,118.13
2023-05-16T04:47:21.747Z,123.75
2023-05-16T04:48:21.748Z,129.38
2023-05-16T04:49:22.020Z,135.00
2023-05-16T04:50:21.518Z,140.63
2023-05-16T04:51:21.514Z,140.63
2023-05-16T04:52:21.454Z,146.25
2023-05-16T04:53:21.636Z,146.25
2023-05-16T04:54:21.339Z,146.25
2023-05-16T04:55:21.301Z,140.63
2023-05-16T04:56:25.770Z,135.00
2023-05-16T04:57:21.251Z,129.38
2023-05-16T04:58:21.459Z,123.75
2023-05-16T04:59:21.125Z,112.50
2023-05-16T05:00:21.087Z,112.50
2023-05-16T05:01:21.352Z,106.88
2023-05-16T05:02:21.286Z,101.25
2023-05-16T05:03:21.030Z,95.63
2023-05-16T05:04:23.399Z,84.38
2023-05-16T05:05:20.979Z,78.75
2023-05-16T05:06:20.850Z,73.13
2023-05-16T05:07:21.937Z,73.13
2023-05-16T05:08:20.732Z,78.75
2023-05-16T05:09:21.014Z,73.13
2023-05-16T05:10:20.644Z,67.50
2023-05-16T05:11:20.602Z,67.50
2023-05-16T05:12:20.790Z,73.13
2023-05-16T05:13:41.647Z,78.75
2023-05-16T05:14:20.513Z,90.00
2023-05-16T05:15:20.429Z,101.25
2023-05-16T05:16:21.584Z,101.25
2023-05-16T05:17:20.371Z,101.25
2023-05-16T05:18:20.621Z,106.88
2023-05-16T05:19:20.296Z,112.50
2023-05-16T05:20:20.591Z,135.00
2023-05-16T05:21:20.201Z,157.50
2023-05-16T05:22:20.455Z,180.00
2023-05-16T05:23:20.089Z,191.25
2023-05-16T05:24:20.225Z,196.88
2023-05-16T05:25:19.990Z,208.13
2023-05-16T05:26:21.251Z,208.13
2023-05-16T05:27:19.921Z,208.13
2023-05-16T05:28:19.862Z,191.25
2023-05-16T05:29:19.821Z,168.75
2023-05-16T05:30:20.057Z,146.25
2023-05-16T05:31:19.798Z,129.38
2023-05-16T05:32:19.871Z,112.50
2023-05-16T05:33:20.129Z,106.88
2023-05-16T05:34:19.610Z,95.63
2023-05-16T05:35:19.909Z,90.00
2023-05-16T05:36:19.516Z,90.00
2023-05-16T05:37:20.719Z,90.00
2023-05-16T05:38:19.432Z,101.25
2023-05-16T05:39:19.547Z,112.50
2023-05-16T05:40:19.338Z,123.75
2023-05-16T05:41:19.517Z,123.75
2023-05-16T05:42:19.267Z,123.75
2023-05-16T05:43:19.435Z,123.75
2023-05-16T05:44:19.172Z,123.75
2023-05-16T05:45:19.242Z,135.00
2023-05-16T05:46:19.136Z,163.13
2023-05-16T05:47:19.255Z,196.88
2023-05-16T05:48:18.998Z,208.13
2023-05-16T05:49:19.087Z,208.13
2023-05-16T05:50:18.928Z,202.50
2023-05-16T05:51:18.900Z,191.25
2023-05-16T05:52:18.892Z,180.00
2023-05-16T05:53:18.780Z,174.38
2023-05-16T05:54:18.897Z,174.38
2023-05-16T05:55:18.751Z,180.00
2023-05-16T05:56:18.705Z,191.25
2023-05-16T05:57:18.633Z,213.75
2023-05-16T05:58:18.755Z,225.00
2023-05-16T05:59:18.530Z,241.88
2023-05-16T06:03:51.117Z,275.63
2023-05-16T06:04:47.222Z,281.25
2023-05-16T06:05:47.282Z,281.25
2023-05-16T06:06:47.060Z,286.88
2023-05-16T06:07:47.265Z,286.88
2023-05-16T06:08:46.969Z,286.88
2023-05-16T06:09:47.070Z,298.13
2023-05-16T06:10:46.884Z,303.75
2023-05-16T06:11:46.885Z,303.75
2023-05-16T06:12:46.804Z,303.75
2023-05-16T06:13:47.919Z,298.13
2023-05-16T06:14:46.717Z,298.13
2023-05-16T06:15:46.711Z,298.13
2023-05-16T06:16:46.640Z,303.75
2023-05-16T06:17:46.786Z,286.88
2023-05-16T06:18:46.568Z,275.63
2023-05-16T06:19:47.974Z,270.00
2023-05-16T06:20:46.451Z,275.63
2023-05-16T06:21:46.553Z,286.88
2023-05-16T06:22:46.368Z,292.50
2023-05-16T06:23:46.560Z,298.13
2023-05-16T06:24:46.272Z,275.63
2023-05-16T06:25:46.369Z,247.50
2023-05-16T06:26:46.417Z,225.00
2023-05-16T06:27:46.383Z,196.88
2023-05-16T06:28:46.104Z,174.38
2023-05-16T06:29:46.065Z,163.13
2023-05-16T06:30:46.037Z,151.88
2023-05-16T06:31:47.161Z,151.88
2023-05-16T06:32:45.978Z,157.50
2023-05-16T06:33:46.330Z,168.75
2023-05-16T06:34:45.851Z,191.25
2023-05-16T06:35:45.813Z,213.75
2023-05-16T06:36:45.938Z,236.25
2023-05-16T06:37:45.731Z,253.13
2023-05-16T06:38:45.765Z,264.38
2023-05-16T06:39:45.667Z,270.00
2023-05-16T06:40:45.767Z,281.25
2023-05-16T06:41:45.548Z,292.50
2023-05-16T06:42:45.569Z,286.88
2023-05-16T06:43:45.474Z,275.63
2023-05-16T06:44:46.614Z,270.00
2023-05-16T06:45:45.450Z,281.25
2023-05-16T06:46:45.382Z,303.75
2023-05-16T06:47:45.349Z,326.25
2023-05-16T06:48:45.429Z,331.88
2023-05-16T06:49:45.207Z,331.88
2023-05-16T06:50:45.245Z,315.00
2023-05-16T06:51:45.154Z,298.13
2023-05-16T06:52:45.289Z,292.50
2023-05-16T06:53:45.031Z,281.25
2023-05-16T06:54:45.063Z,270.00
2023-05-16T06:55:44.948Z,270.00
2023-05-16T06:56:45.062Z,286.88
2023-05-16T06:57:44.913Z,326.25
2023-05-16T06:58:44.814Z,388.13
2023-05-16T06:59:44.773Z,444.38
2023-05-16T07:00:44.894Z,466.88
2023-05-16T07:01:44.771Z,450.00
2023-05-16T07:02:44.834Z,427.50
2023-05-16T07:03:44.845Z,393.75
2023-05-16T07:04:44.556Z,371.25
2023-05-16T07:05:45.745Z,371.25
2023-05-16T07:06:44.525Z,382.50
2023-05-16T07:07:44.534Z,399.38
2023-05-16T07:08:44.428Z,416.25
2023-05-16T07:09:44.542Z,455.63
2023-05-16T07:10:45.434Z,489.38
2023-05-16T07:11:44.363Z,528.75
2023-05-16T07:12:44.241Z,556.88
2023-05-16T07:13:44.373Z,551.25
2023-05-16T07:14:44.127Z,517.50
2023-05-16T07:15:44.085Z,478.13
2023-05-16T07:16:44.132Z,438.75
2023-05-16T07:17:44.428Z,405.00
2023-05-16T07:18:44.037Z,388.13
2023-05-16T07:19:44.005Z,365.63
2023-05-16T07:20:43.909Z,354.38
2023-05-16T07:21:45.095Z,337.50
2023-05-16T07:22:44.840Z,320.63
2023-05-16T07:23:43.772Z,298.13
2023-05-16T07:24:43.837Z,292.50
2023-05-16T07:25:44.943Z,298.13
2023-05-16T07:26:43.850Z,298.13
2023-05-16T07:27:43.571Z,286.88
2023-05-16T07:28:43.721Z,258.75
2023-05-16T07:29:43.514Z,253.13
2023-05-16T07:30:43.680Z,247.50
2023-05-16T07:31:43.435Z,236.25
2023-05-16T07:32:43.409Z,208.13
2023-05-16T07:33:43.317Z,196.88
2023-05-16T07:34:43.705Z,225.00
2023-05-16T07:35:43.267Z,213.75
2023-05-16T07:36:44.330Z,202.50
2023-05-16T07:37:43.144Z,219.38
2023-05-16T07:38:43.113Z,225.00
2023-05-16T07:39:43.115Z,253.13
2023-05-16T07:40:43.066Z,292.50
2023-05-16T07:41:44.158Z,264.38
2023-05-16T07:42:42.930Z,247.50
2023-05-16T07:43:42.952Z,236.25
2023-05-16T07:44:42.838Z,213.75
2023-05-16T07:45:43.008Z,213.75
2023-05-16T07:46:43.299Z,196.88
2023-05-16T07:47:43.828Z,196.88
2023-05-16T07:48:42.731Z,185.63
2023-05-16T07:49:42.805Z,191.25
2023-05-16T07:50:42.589Z,196.88
2023-05-16T07:51:42.598Z,196.88
2023-05-16T07:52:42.741Z,191.25
2023-05-16T07:53:42.607Z,185.63
2023-05-16T07:54:42.662Z,185.63
2023-05-16T07:55:42.625Z,219.38
2023-05-16T07:56:42.323Z,247.50
2023-05-16T07:58:03.531Z,264.38
2023-05-16T07:58:42.248Z,292.50
2023-05-16T07:59:42.242Z,365.63
2023-05-16T08:00:42.256Z,371.25
2023-05-16T08:01:42.257Z,298.13
2023-05-16T08:02:42.285Z,281.25
2023-05-16T08:03:49.812Z,303.75
2023-05-16T08:04:41.991Z,326.25
2023-05-16T08:05:42.115Z,343.13
2023-05-16T08:06:41.899Z,320.63
2023-05-16T08:07:41.854Z,298.13
2023-05-16T08:08:42.922Z,281.25
2023-05-16T08:09:41.791Z,247.50
2023-05-16T08:10:42.948Z,225.00
2023-05-16T08:11:41.776Z,236.25
2023-05-16T08:12:41.729Z,247.50
2023-05-16T08:13:41.593Z,264.38
2023-05-16T08:14:41.756Z,286.88
2023-05-16T08:15:41.517Z,309.38
2023-05-16T08:16:41.799Z,292.50
2023-05-16T08:17:41.486Z,275.63
2023-05-16T08:18:41.408Z,320.63
2023-05-16T08:19:41.343Z,343.13
2023-05-16T08:20:41.383Z,343.13
2023-05-16T08:21:41.253Z,343.13
2023-05-16T08:22:41.556Z,343.13
2023-05-16T08:23:41.415Z,365.63
2023-05-16T08:24:41.215Z,371.25
2023-05-16T08:25:41.079Z,388.13
2023-05-16T08:26:42.239Z,399.38
2023-05-16T08:27:40.998Z,416.25
2023-05-16T08:28:41.009Z,427.50
2023-05-16T08:29:41.051Z,410.63
2023-05-16T08:30:42.778Z,410.63
2023-05-16T08:31:40.885Z,410.63
2023-05-16T08:32:40.897Z,416.25
2023-05-16T08:33:40.905Z,365.63
2023-05-16T08:34:40.867Z,348.75
2023-05-16T08:35:40.690Z,360.00
2023-05-16T08:36:41.749Z,371.25
2023-05-16T08:37:40.564Z,354.38
2023-05-16T08:38:40.561Z,298.13
2023-05-16T08:39:41.725Z,275.63
2023-05-16T08:40:40.564Z,258.75
2023-05-16T08:41:40.420Z,247.50
2023-05-16T08:42:40.384Z,270.00
2023-05-16T08:43:42.568Z,292.50
2023-05-16T08:44:40.266Z,258.75
2023-05-16T08:45:40.336Z,281.25
2023-05-16T08:46:40.238Z,241.88
2023-05-16T08:47:40.181Z,196.88
2023-05-16T08:48:40.115Z,180.00
2023-05-16T08:49:40.366Z,157.50
2023-05-16T08:50:40.026Z,135.00
2023-05-16T08:51:41.195Z,129.38
2023-05-16T08:52:39.931Z,129.38
2023-05-16T08:53:39.891Z,129.38
2023-05-16T08:54:41.015Z,146.25
2023-05-16T08:55:40.033Z,185.63
2023-05-16T08:56:40.846Z,236.25
2023-05-16T08:57:39.735Z,258.75
2023-05-16T08:58:39.818Z,258.75
2023-05-16T08:59:39.630Z,270.00
2023-05-16T09:00:43.128Z,292.50
2023-05-16T09:01:39.637Z,309.38
2023-05-16T09:02:40.893Z,315.00
2023-05-16T09:03:39.492Z,438.75
2023-05-16T09:04:39.597Z,551.25
2023-05-16T09:05:39.375Z,438.75
2023-05-16T09:06:40.599Z,354.38
2023-05-16T09:07:39.308Z,320.63
2023-05-16T09:08:39.682Z,331.88
2023-05-16T09:09:39.231Z,405.00
2023-05-16T09:10:39.194Z,483.75
2023-05-16T09:11:40.332Z,523.13
2023-05-16T09:12:39.111Z,421.88
2023-05-16T09:13:39.113Z,348.75
2023-05-16T09:14:39.037Z,309.38
2023-05-16T09:15:39.155Z,292.50
2023-05-16T09:16:38.987Z,247.50
2023-05-16T09:17:39.996Z,213.75
2023-05-16T09:18:38.898Z,202.50
2023-05-16T09:19:40.085Z,202.50
2023-05-16T09:20:38.731Z,208.13
2023-05-16T09:21:38.985Z,213.75
2023-05-16T09:22:40.884Z,202.50
2023-05-16T09:23:38.787Z,196.88
2023-05-16T09:24:38.566Z,208.13
2023-05-16T09:25:39.617Z,213.75
2023-05-16T09:26:38.558Z,202.50
2023-05-16T09:27:39.688Z,202.50
2023-05-16T09:28:38.451Z,208.13
2023-05-16T09:29:38.663Z,241.88
2023-05-16T09:30:38.298Z,253.13
2023-05-16T09:31:38.561Z,236.25
2023-05-16T09:32:38.317Z,196.88
2023-05-16T09:33:38.174Z,185.63
2023-05-16T09:34:38.241Z,202.50
2023-05-16T09:35:45.129Z,219.38
2023-05-16T09:36:38.265Z,225.00
2023-05-16T09:37:38.008Z,225.00
2023-05-16T09:38:38.063Z,208.13
2023-05-16T09:39:37.909Z,202.50
2023-05-16T09:40:39.113Z,191.25
2023-05-16T09:41:37.816Z,185.63
2023-05-16T09:42:39.117Z,202.50
2023-05-16T09:43:38.287Z,208.13
2023-05-16T09:44:37.701Z,208.13
2023-05-16T09:45:37.659Z,213.75
2023-05-16T09:46:37.760Z,213.75
2023-05-16T09:47:37.599Z,219.38
2023-05-16T09:48:37.726Z,225.00
2023-05-16T09:49:37.488Z,225.00
2023-05-16T09:50:37.449Z,225.00
2023-05-16T09:51:37.391Z,225.00
2023-05-16T09:52:37.555Z,241.88
2023-05-16T09:53:37.313Z,253.13
2023-05-16T09:54:37.571Z,270.00
2023-05-16T09:55:37.247Z,298.13
2023-05-16T09:56:37.171Z,365.63
2023-05-16T09:57:38.230Z,410.63
2023-05-16T09:58:37.088Z,421.88
2023-05-16T09:59:38.218Z,427.50
2023-05-16T10:00:37.461Z,427.50
2023-05-16T10:01:37.227Z,455.63
2023-05-16T10:02:36.984Z,506.25
2023-05-16T10:03:37.169Z,517.50
2023-05-16T10:04:36.825Z,568.13
2023-05-16T10:05:37.038Z,568.13
2023-05-16T10:06:36.769Z,517.50
2023-05-16T10:07:36.688Z,455.63
2023-05-16T10:08:37.352Z,466.88
2023-05-16T10:09:37.067Z,517.50
2023-05-16T10:10:36.564Z,562.50
2023-05-16T10:11:36.688Z,585.00
2023-05-16T10:12:36.465Z,624.38
2023-05-16T10:13:36.419Z,703.13
2023-05-16T10:14:36.384Z,742.50
2023-05-16T10:15:36.561Z,759.38
2023-05-16T10:16:36.384Z,708.75
2023-05-16T10:17:36.303Z,646.88
2023-05-16T10:18:37.422Z,720.00
2023-05-16T10:19:37.341Z,776.25
2023-05-16T10:20:36.130Z,826.88
2023-05-16T10:21:37.357Z,849.38
2023-05-16T10:22:36.040Z,860.63
2023-05-16T10:23:37.382Z,894.38
2023-05-16T10:24:36.222Z,916.88
2023-05-16T10:25:35.910Z,894.38
2023-05-16T10:26:36.991Z,961.88
2023-05-16T10:27:35.836Z,1023.75
2023-05-16T10:28:36.415Z,1006.88
2023-05-16T10:29:46.437Z,1051.88
2023-05-16T10:30:35.755Z,1012.50
2023-05-16T10:31:35.715Z,1023.75
2023-05-16T10:32:35.831Z,1130.63
2023-05-16T10:33:35.563Z,1288.13
2023-05-16T10:34:37.041Z,1434.38
2023-05-16T10:35:35.489Z,1372.50
2023-05-16T10:36:35.498Z,1299.38
2023-05-16T10:37:35.405Z,1237.50
2023-05-16T10:38:35.838Z,1254.38
2023-05-16T10:39:35.311Z,1153.13
2023-05-16T10:40:35.446Z,1282.50
2023-05-16T10:41:35.235Z,1473.75
2023-05-16T10:42:35.211Z,1749.38
2023-05-16T10:43:35.266Z,2025.00
2023-05-16T10:44:35.318Z,1648.13
2023-05-16T10:45:35.338Z,1220.63
2023-05-16T10:46:35.114Z,1012.50
2023-05-16T10:47:35.116Z,821.25
2023-05-16T10:48:34.945Z,720.00
2023-05-16T10:49:35.127Z,675.00
2023-05-16T10:50:34.887Z,624.38
2023-05-16T10:51:36.161Z,613.13
2023-05-16T10:52:34.781Z,641.25
2023-05-16T10:53:34.767Z,686.25
2023-05-16T10:54:34.696Z,753.75
2023-05-16T10:55:34.947Z,748.13
2023-05-16T10:56:34.714Z,731.25
2023-05-16T10:57:34.783Z,691.88
2023-05-16T10:58:34.562Z,753.75
2023-05-16T10:59:34.487Z,911.25
2023-05-16T11:00:35.685Z,1108.13
2023-05-16T11:01:34.419Z,1085.63
2023-05-16T11:02:34.936Z,1046.25
2023-05-16T11:03:34.404Z,933.75
2023-05-16T11:04:34.399Z,753.75
2023-05-16T11:05:34.229Z,793.13
2023-05-16T11:06:34.477Z,691.88
2023-05-16T11:07:34.153Z,517.50
2023-05-16T11:08:34.421Z,382.50
2023-05-16T11:09:34.063Z,298.13
2023-05-16T11:10:34.084Z,292.50
2023-05-16T11:11:33.984Z,393.75
2023-05-16T11:12:34.050Z,483.75
2023-05-16T11:13:33.897Z,472.50
2023-05-16T11:14:34.476Z,388.13
2023-05-16T11:15:33.824Z,331.88
2023-05-16T11:16:33.830Z,354.38
2023-05-16T11:17:33.755Z,371.25
2023-05-16T11:18:35.964Z,360.00
2023-05-16T11:19:33.641Z,286.88
2023-05-16T11:20:35.941Z,360.00
2023-05-16T11:21:33.553Z,455.63
2023-05-16T11:22:33.765Z,450.00
2023-05-16T11:23:54.600Z,489.38
2023-05-16T11:24:33.464Z,585.00
2023-05-16T11:25:33.540Z,568.13
2023-05-16T11:26:33.387Z,618.75
2023-05-16T11:27:33.306Z,534.38
2023-05-16T11:28:33.253Z,472.50
2023-05-16T11:29:34.578Z,410.63
2023-05-16T11:30:33.180Z,354.38
2023-05-16T11:31:35.430Z,331.88
2023-05-16T11:32:33.242Z,337.50
2023-05-16T11:33:33.038Z,371.25
2023-05-16T11:34:33.179Z,360.00
2023-05-16T11:35:32.955Z,326.25
2023-05-16T11:36:33.194Z,303.75
2023-05-16T11:37:33.050Z,315.00
2023-05-16T11:38:53.914Z,343.13
2023-05-16T11:39:32.849Z,360.00
2023-05-16T11:40:33.033Z,343.13
2023-05-16T11:41:32.704Z,371.25
2023-05-16T11:42:32.831Z,376.88
2023-05-16T11:43:32.612Z,348.75
2023-05-16T11:44:32.900Z,298.13
2023-05-16T11:45:32.549Z,292.50
2023-05-16T11:46:32.711Z,275.63
2023-05-16T11:47:32.529Z,253.13
2023-05-16T11:48:36.469Z,241.88
2023-05-16T11:49:32.357Z,241.88
2023-05-16T11:50:32.413Z,253.13
2023-05-16T11:51:34.745Z,281.25
2023-05-16T11:52:32.307Z,264.38
2023-05-16T11:53:32.297Z,264.38
2023-05-16T11:54:32.147Z,264.38
2023-05-16T11:55:41.375Z,303.75
2023-05-16T11:56:32.239Z,286.88
2023-05-16T11:57:32.122Z,331.88
2023-05-16T11:58:33.413Z,354.38
2023-05-16T11:59:32.148Z,309.38
2023-05-16T12:00:31.870Z,286.88
2023-05-16T12:01:31.883Z,298.13
2023-05-16T12:02:31.905Z,258.75
2023-05-16T12:03:32.034Z,236.25
2023-05-16T12:04:31.840Z,236.25
2023-05-16T12:05:32.191Z,253.13
2023-05-16T12:06:31.618Z,270.00
2023-05-16T12:07:32.212Z,275.63
2023-05-16T12:08:31.534Z,264.38
2023-05-16T12:09:31.533Z,230.63
2023-05-16T12:10:31.625Z,185.63
2023-05-16T12:11:31.413Z,146.25
2023-05-16T12:12:31.627Z,118.13
2023-05-16T12:13:31.312Z,101.25
2023-05-16T12:14:32.665Z,95.63
2023-05-16T12:15:31.535Z,90.00
2023-05-16T12:16:31.462Z,90.00
2023-05-16T12:17:31.214Z,95.63
2023-05-16T12:18:31.169Z,106.88
2023-05-16T12:19:31.145Z,112.50
2023-05-16T12:20:31.273Z,123.75
2023-05-16T12:21:30.974Z,140.63
2023-05-16T12:22:33.132Z,157.50
2023-05-16T12:23:31.281Z,151.88
2023-05-16T12:24:30.904Z,140.63
2023-05-16T12:25:32.169Z,151.88
2023-05-16T12:26:30.823Z,157.50
2023-05-16T12:27:31.016Z,157.50
2023-05-16T12:28:30.710Z,163.13
2023-05-16T12:29:30.692Z,185.63
2023-05-16T12:30:31.140Z,180.00
2023-05-16T12:31:32.277Z,163.13
2023-05-16T12:32:30.729Z,174.38
2023-05-16T12:33:30.572Z,185.63
2023-05-16T12:34:30.665Z,230.63
2023-05-16T12:35:30.728Z,230.63
2023-05-16T12:36:30.473Z,196.88
2023-05-16T12:37:30.286Z,168.75
2023-05-16T12:38:31.406Z,196.88
2023-05-16T12:39:30.184Z,258.75
2023-05-16T12:40:30.551Z,219.38
2023-05-16T12:41:30.126Z,157.50
2023-05-16T12:42:30.315Z,140.63
2023-05-16T12:43:30.540Z,157.50
2023-05-16T12:44:31.143Z,163.13
2023-05-16T12:45:29.933Z,163.13
2023-05-16T12:46:29.999Z,180.00
2023-05-16T12:47:29.874Z,191.25